Terminal Aerodrome Forecast
Issued by NWS

Home | Current Version | Previous Version | Text Only | Print | Product List | Glossary On
Versions: 1 2 3 4 5 6 7 8 9 10 11 12 13 14 15 16 17 18 19 20 21 22 23 24
000
FTUS41 KGYX 210527
TAFPSM
TAF
KPSM 210527Z 2106/2206 VRB03KT 1/4SM FG VV001 WS015/25040KT
     FM211300 23007KT 2SM BR OVC003 WS020/26040KT
     FM211700 23009G16KT P6SM SCT025 BKN100
     FM212300 30007KT P6SM BKN050=

USA.gov is the U.S. government's official web portal to all federal, state and local government web resources and services.